createdAt,value
2022-08-26T00:00:04.531Z,96.13
2022-08-26T00:02:34.325Z,96.50
2022-08-26T00:05:04.088Z,96.97
2022-08-26T00:07:34.177Z,97.46
2022-08-26T00:10:03.998Z,97.70
2022-08-26T00:12:37.485Z,98.02
2022-08-26T00:15:13.557Z,98.19
2022-08-26T00:17:44.017Z,98.51
2022-08-26T00:20:16.934Z,98.70
2022-08-26T00:22:46.732Z,99.05
2022-08-26T00:25:16.824Z,99.14
2022-08-26T00:27:47.932Z,99.34
2022-08-26T00:30:24.091Z,99.62
2022-08-26T00:32:54.420Z,99.92
2022-08-26T00:35:24.688Z,100.00
2022-08-26T00:37:58.064Z,100.00
2022-08-26T00:40:32.983Z,100.00
2022-08-26T00:43:03.869Z,100.00
2022-08-26T00:45:48.443Z,100.00
2022-08-26T00:48:20.842Z,100.00
2022-08-26T00:50:55.918Z,100.00
2022-08-26T00:53:28.696Z,100.00
2022-08-26T00:56:02.808Z,100.00
2022-08-26T00:58:35.195Z,100.00
2022-08-26T01:01:08.418Z,100.00
2022-08-26T01:03:40.371Z,100.00
2022-08-26T01:06:13.040Z,100.00
2022-08-26T01:08:43.348Z,100.00
2022-08-26T01:11:14.088Z,100.00
2022-08-26T01:13:44.305Z,100.00
2022-08-26T01:16:19.022Z,100.00
2022-08-26T01:18:50.723Z,100.00
2022-08-26T01:21:29.448Z,100.00
2022-08-26T01:24:02.933Z,100.00
2022-08-26T01:26:36.019Z,100.00
2022-08-26T01:29:10.473Z,100.00
2022-08-26T01:31:45.279Z,100.00
2022-08-26T01:34:22.814Z,100.00
2022-08-26T01:36:54.420Z,100.00
2022-08-26T01:39:27.882Z,100.00
2022-08-26T01:42:02.913Z,100.00
2022-08-26T01:44:37.016Z,100.00
2022-08-26T01:47:07.912Z,100.00
2022-08-26T01:49:39.951Z,100.00
2022-08-26T01:52:11.481Z,100.00
2022-08-26T01:54:46.334Z,100.00
2022-08-26T01:57:21.635Z,100.00
2022-08-26T01:59:55.793Z,100.00
2022-08-26T02:02:26.954Z,100.00
2022-08-26T02:05:00.211Z,100.00
2022-08-26T02:07:30.853Z,100.00
2022-08-26T02:10:07.112Z,100.00
2022-08-26T02:12:37.244Z,100.00
2022-08-26T02:15:11.150Z,100.00
2022-08-26T02:17:43.748Z,100.00
2022-08-26T02:20:15.297Z,100.00
2022-08-26T02:22:45.389Z,100.00
2022-08-26T02:25:25.639Z,100.00
2022-08-26T02:27:56.880Z,100.00
2022-08-26T02:30:29.513Z,100.00
2022-08-26T02:33:04.035Z,100.00
2022-08-26T02:35:36.427Z,100.00
2022-08-26T02:38:09.836Z,100.00
2022-08-26T02:40:44.783Z,100.00
2022-08-26T02:43:15.196Z,100.00
2022-08-26T02:45:46.073Z,100.00
2022-08-26T02:48:19.615Z,100.00
2022-08-26T02:50:49.899Z,100.00
2022-08-26T02:53:25.058Z,100.00
2022-08-26T02:55:58.378Z,100.00
2022-08-26T02:58:29.577Z,100.00
2022-08-26T03:00:59.662Z,100.00
2022-08-26T03:03:32.082Z,100.00
2022-08-26T03:06:02.373Z,100.00
2022-08-26T03:08:32.144Z,100.00
2022-08-26T03:11:04.468Z,100.00
2022-08-26T03:13:35.882Z,100.00
2022-08-26T03:16:06.465Z,100.00
2022-08-26T03:18:36.612Z,100.00
2022-08-26T03:21:09.035Z,100.00
2022-08-26T03:23:38.727Z,100.00
2022-08-26T03:26:14.675Z,100.00
2022-08-26T03:29:04.879Z,100.00
2022-08-26T03:31:32.093Z,100.00
2022-08-26T03:34:02.778Z,100.00
2022-08-26T03:36:32.988Z,100.00
2022-08-26T03:39:04.860Z,100.00
2022-08-26T03:41:37.813Z,100.00
2022-08-26T03:44:08.936Z,100.00
2022-08-26T03:46:39.652Z,100.00
2022-08-26T03:49:10.443Z,100.00
2022-08-26T03:51:40.631Z,100.00
2022-08-26T03:54:12.503Z,100.00
2022-08-26T03:56:46.621Z,100.00
2022-08-26T03:59:16.634Z,100.00
2022-08-26T04:01:46.476Z,100.00
2022-08-26T04:04:18.317Z,100.00
2022-08-26T04:06:53.234Z,100.00
2022-08-26T04:09:23.858Z,100.00
2022-08-26T04:11:58.732Z,100.00
2022-08-26T04:14:31.337Z,100.00
2022-08-26T04:17:04.990Z,100.00
2022-08-26T04:19:35.949Z,100.00
2022-08-26T04:22:05.752Z,100.00
2022-08-26T04:24:36.381Z,100.00
2022-08-26T04:27:08.990Z,100.00
2022-08-26T04:29:39.195Z,100.00
2022-08-26T04:32:09.392Z,100.00
2022-08-26T04:34:40.623Z,100.00
2022-08-26T04:37:11.126Z,100.00
2022-08-26T04:39:41.197Z,100.00
2022-08-26T04:42:14.018Z,100.00
2022-08-26T04:44:43.702Z,100.00
2022-08-26T04:47:13.428Z,100.00
2022-08-26T04:49:43.825Z,100.00
2022-08-26T04:52:13.541Z,100.00
2022-08-26T04:54:43.249Z,100.00
2022-08-26T04:57:16.272Z,100.00
2022-08-26T04:59:46.011Z,100.00
2022-08-26T05:02:15.846Z,100.00
2022-08-26T05:04:45.655Z,100.00
2022-08-26T05:07:15.375Z,100.00
2022-08-26T05:09:47.663Z,100.00
2022-08-26T05:12:20.004Z,100.00
2022-08-26T05:14:49.974Z,100.00
2022-08-26T05:17:19.683Z,100.00
2022-08-26T05:19:50.746Z,100.00
2022-08-26T05:22:20.483Z,100.00
2022-08-26T05:24:50.227Z,100.00
2022-08-26T05:27:22.555Z,100.00
2022-08-26T05:29:54.654Z,100.00
2022-08-26T05:32:24.493Z,100.00
2022-08-26T05:34:57.221Z,100.00
2022-08-26T05:37:28.359Z,100.00
2022-08-26T05:39:58.231Z,100.00
2022-08-26T05:42:31.136Z,100.00
2022-08-26T05:45:00.866Z,100.00
2022-08-26T05:47:30.626Z,100.00
2022-08-26T05:50:00.744Z,100.00
2022-08-26T05:52:30.455Z,100.00
2022-08-26T05:55:00.492Z,100.00
2022-08-26T05:57:37.462Z,100.00
2022-08-26T06:00:11.500Z,100.00
2022-08-26T06:02:41.552Z,100.00
2022-08-26T06:05:12.002Z,100.00
2022-08-26T06:07:54.136Z,100.00
2022-08-26T06:10:32.839Z,100.00
2022-08-26T06:13:11.502Z,100.00
2022-08-26T06:15:46.533Z,100.00
2022-08-26T06:18:18.179Z,100.00
2022-08-26T06:20:56.982Z,100.00
2022-08-26T06:23:41.166Z,100.00
2022-08-26T06:26:11.169Z,100.00
2022-08-26T06:28:45.370Z,100.00
2022-08-26T06:31:15.999Z,100.00
2022-08-26T06:33:46.287Z,100.00
2022-08-26T06:36:20.776Z,100.00
2022-08-26T06:38:51.906Z,100.00
2022-08-26T06:41:23.853Z,100.00
2022-08-26T06:43:57.530Z,100.00
2022-08-26T06:46:27.381Z,100.00
2022-08-26T06:48:58.351Z,100.00
2022-08-26T06:51:30.251Z,100.00
2022-08-26T06:54:02.328Z,100.00
2022-08-26T06:56:38.159Z,100.00
2022-08-26T06:59:11.616Z,100.00
2022-08-26T07:01:45.662Z,100.00
2022-08-26T07:04:22.019Z,100.00
2022-08-26T07:06:53.680Z,100.00
2022-08-26T07:09:25.503Z,100.00
2022-08-26T07:11:56.667Z,100.00
2022-08-26T07:14:29.408Z,100.00
2022-08-26T07:17:02.735Z,100.00
2022-08-26T07:19:32.492Z,100.00
2022-08-26T07:22:04.228Z,100.00
2022-08-26T07:24:35.059Z,100.00
2022-08-26T07:27:07.352Z,100.00
2022-08-26T07:29:42.580Z,100.00
2022-08-26T07:32:13.552Z,100.00
2022-08-26T07:34:44.779Z,100.00
2022-08-26T07:37:14.797Z,100.00
2022-08-26T07:39:45.319Z,100.00
2022-08-26T07:42:17.014Z,100.00
2022-08-26T07:44:51.509Z,100.00
2022-08-26T07:47:25.640Z,100.00
2022-08-26T07:49:57.986Z,100.00
2022-08-26T07:52:29.523Z,100.00
2022-08-26T07:55:00.986Z,100.00
2022-08-26T07:57:31.640Z,100.00
2022-08-26T08:00:04.220Z,100.00
2022-08-26T08:02:34.071Z,100.00
2022-08-26T08:05:04.516Z,100.00
2022-08-26T08:07:44.501Z,100.00
2022-08-26T08:10:17.065Z,100.00
2022-08-26T08:12:47.573Z,100.00
2022-08-26T08:15:21.267Z,100.00
2022-08-26T08:17:51.583Z,100.00
2022-08-26T08:20:22.325Z,100.00
2022-08-26T08:22:53.914Z,100.00
2022-08-26T08:25:24.099Z,100.00
2022-08-26T08:27:54.172Z,100.00
2022-08-26T08:30:27.688Z,100.00
2022-08-26T08:32:57.981Z,100.00
2022-08-26T08:35:27.864Z,100.00
2022-08-26T08:37:59.773Z,100.00
2022-08-26T08:40:31.428Z,100.00
2022-08-26T08:43:05.343Z,100.00
2022-08-26T08:45:42.044Z,100.00
2022-08-26T08:48:18.917Z,100.00
2022-08-26T08:50:51.976Z,100.00
2022-08-26T08:53:25.237Z,100.00
2022-08-26T08:56:03.969Z,100.00
2022-08-26T08:58:48.700Z,100.00
2022-08-26T09:01:31.020Z,100.00
2022-08-26T09:04:20.505Z,100.00
2022-08-26T09:06:53.065Z,100.00
2022-08-26T09:09:31.171Z,100.00
2022-08-26T09:12:01.624Z,100.00
2022-08-26T09:14:31.474Z,100.00
2022-08-26T09:17:12.241Z,100.00
2022-08-26T09:19:45.929Z,100.00
2022-08-26T09:22:32.334Z,100.00
2022-08-26T09:25:02.576Z,100.00
2022-08-26T09:27:44.952Z,100.00
2022-08-26T09:30:18.197Z,100.00
2022-08-26T09:33:01.216Z,100.00
2022-08-26T09:35:34.017Z,100.00
2022-08-26T09:38:06.155Z,100.00
2022-08-26T09:40:40.206Z,100.00
2022-08-26T09:43:22.015Z,100.00
2022-08-26T09:45:59.284Z,100.00
2022-08-26T09:48:36.602Z,100.00
2022-08-26T09:51:08.948Z,100.00
2022-08-26T09:53:53.038Z,100.00
2022-08-26T09:56:30.088Z,100.00
2022-08-26T09:59:01.154Z,100.00
2022-08-26T10:01:38.338Z,100.00
2022-08-26T10:04:14.989Z,100.00
2022-08-26T10:06:57.034Z,100.00
2022-08-26T10:09:28.761Z,100.00
2022-08-26T10:12:03.507Z,100.00
2022-08-26T10:14:40.045Z,100.00
2022-08-26T10:17:14.248Z,100.00
2022-08-26T10:19:56.924Z,100.00
2022-08-26T10:22:34.404Z,100.00
2022-08-26T10:25:09.600Z,100.00
2022-08-26T10:27:52.750Z,100.00
2022-08-26T10:30:25.515Z,100.00
2022-08-26T10:32:58.519Z,100.00
2022-08-26T10:35:33.662Z,100.00
2022-08-26T10:38:06.442Z,100.00
2022-08-26T10:40:49.143Z,100.00
2022-08-26T10:43:25.693Z,100.00
2022-08-26T10:46:00.737Z,100.00
2022-08-26T10:48:38.501Z,100.00
2022-08-26T10:51:13.159Z,100.00
2022-08-26T10:53:51.891Z,100.00
2022-08-26T10:56:39.880Z,100.00
2022-08-26T10:59:16.417Z,100.00
2022-08-26T11:01:52.719Z,100.00
2022-08-26T11:04:48.114Z,100.00
2022-08-26T11:07:42.283Z,100.00
2022-08-26T11:10:28.273Z,100.00
2022-08-26T11:13:00.870Z,100.00
2022-08-26T11:16:10.317Z,100.00
2022-08-26T11:18:51.329Z,100.00
2022-08-26T11:21:52.162Z,100.00
2022-08-26T11:24:49.604Z,100.00
2022-08-26T11:28:03.989Z,100.00
2022-08-26T11:30:57.017Z,100.00
2022-08-26T11:33:50.850Z,100.00
2022-08-26T11:36:39.960Z,100.00
2022-08-26T11:39:20.508Z,100.00
2022-08-26T11:42:00.209Z,100.00
2022-08-26T11:44:38.976Z,100.00
2022-08-26T11:47:11.788Z,100.00
2022-08-26T11:49:42.073Z,100.00
2022-08-26T11:52:23.303Z,100.00
2022-08-26T11:55:09.704Z,100.00
2022-08-26T11:57:47.564Z,100.00
2022-08-26T12:00:22.908Z,100.00
2022-08-26T12:02:55.745Z,100.00
2022-08-26T12:05:31.366Z,100.00
2022-08-26T12:08:08.733Z,100.00
2022-08-26T12:10:40.285Z,100.00
2022-08-26T12:13:23.682Z,100.00
2022-08-26T12:15:58.111Z,100.00
2022-08-26T12:18:36.490Z,100.00
2022-08-26T12:21:16.236Z,100.00
2022-08-26T12:23:50.090Z,100.00
2022-08-26T12:26:26.324Z,100.00
2022-08-26T12:29:02.833Z,100.00
2022-08-26T12:31:48.043Z,100.00
2022-08-26T12:34:19.811Z,100.00
2022-08-26T12:36:53.130Z,100.00
2022-08-26T12:39:29.460Z,100.00
2022-08-26T12:42:00.743Z,100.00
2022-08-26T12:44:53.166Z,100.00
2022-08-26T12:47:41.897Z,100.00
2022-08-26T12:50:20.809Z,100.00
2022-08-26T12:53:01.163Z,100.00
2022-08-26T12:55:40.927Z,100.00
2022-08-26T12:58:30.337Z,100.00
2022-08-26T13:01:23.723Z,100.00
2022-08-26T13:03:53.737Z,100.00
2022-08-26T13:06:32.893Z,100.00
2022-08-26T13:09:06.025Z,100.00
2022-08-26T13:11:38.297Z,100.00
2022-08-26T13:14:10.417Z,100.00
2022-08-26T13:16:43.972Z,100.00
2022-08-26T13:19:17.300Z,100.00
2022-08-26T13:21:50.622Z,100.00
2022-08-26T13:24:24.502Z,100.00
2022-08-26T13:26:54.392Z,100.00
2022-08-26T13:29:24.152Z,100.00
2022-08-26T13:31:58.641Z,100.00
2022-08-26T13:34:28.672Z,100.00
2022-08-26T13:36:59.512Z,100.00
2022-08-26T13:39:29.803Z,100.00
2022-08-26T13:42:00.388Z,100.00
2022-08-26T13:44:30.426Z,100.00
2022-08-26T13:47:02.795Z,100.00
2022-08-26T13:49:32.597Z,100.00
2022-08-26T13:52:03.806Z,100.00
2022-08-26T13:54:33.588Z,100.00
2022-08-26T13:57:03.407Z,100.00
2022-08-26T13:59:33.200Z,100.00
2022-08-26T14:02:05.722Z,100.00
2022-08-26T14:04:35.754Z,100.00
2022-08-26T14:07:05.546Z,100.00
2022-08-26T14:09:38.292Z,100.00
2022-08-26T14:12:08.777Z,100.00
2022-08-26T14:14:38.548Z,100.00
2022-08-26T14:17:11.028Z,100.00
2022-08-26T14:19:41.364Z,100.00
2022-08-26T14:22:11.157Z,100.00
2022-08-26T14:24:40.954Z,100.00
2022-08-26T14:27:10.739Z,100.00
2022-08-26T14:29:40.583Z,100.00
2022-08-26T14:32:17.011Z,100.00
2022-08-26T14:34:50.815Z,100.00
2022-08-26T14:37:20.992Z,100.00
2022-08-26T14:39:51.299Z,100.00
2022-08-26T14:42:24.727Z,100.00
2022-08-26T14:44:58.039Z,100.00
2022-08-26T14:47:30.855Z,100.00
2022-08-26T14:50:00.672Z,100.00
2022-08-26T14:52:50.467Z,100.00
2022-08-26T14:55:17.785Z,100.00
2022-08-26T14:57:47.595Z,100.00
2022-08-26T15:00:18.842Z,100.00
2022-08-26T15:02:51.839Z,100.00
2022-08-26T15:05:22.043Z,100.00
2022-08-26T15:07:51.892Z,100.00
2022-08-26T15:10:21.991Z,100.00
2022-08-26T15:12:51.806Z,100.00
2022-08-26T15:15:21.991Z,100.00
2022-08-26T15:17:54.410Z,100.00
2022-08-26T15:20:24.309Z,100.00
2022-08-26T15:22:54.097Z,100.00
2022-08-26T15:25:24.583Z,100.00
2022-08-26T15:27:54.374Z,100.00
2022-08-26T15:30:24.190Z,100.00
2022-08-26T15:32:56.644Z,100.00
2022-08-26T15:35:26.383Z,100.00
2022-08-26T15:37:56.386Z,100.00
2022-08-26T15:40:28.194Z,100.00
2022-08-26T15:43:17.790Z,100.00
2022-08-26T15:45:47.892Z,100.00
2022-08-26T15:48:20.606Z,100.00
2022-08-26T15:50:54.239Z,100.00
2022-08-26T15:53:24.344Z,100.00
2022-08-26T15:55:56.747Z,100.00
2022-08-26T15:58:28.816Z,100.00
2022-08-26T16:01:00.108Z,100.00
2022-08-26T16:03:32.610Z,100.00
2022-08-26T16:06:02.890Z,100.00
2022-08-26T16:08:36.450Z,100.00
2022-08-26T16:11:07.370Z,100.00
2022-08-26T16:13:39.756Z,100.00
2022-08-26T16:16:10.798Z,100.00
2022-08-26T16:18:43.337Z,100.00
2022-08-26T16:21:18.191Z,100.00
2022-08-26T16:23:48.450Z,100.00
2022-08-26T16:26:21.663Z,100.00
2022-08-26T16:28:51.794Z,99.82
2022-08-26T16:31:22.393Z,99.63
2022-08-26T16:33:54.838Z,99.29
2022-08-26T16:36:24.605Z,98.85
2022-08-26T16:38:56.631Z,98.59
2022-08-26T16:41:27.934Z,98.21
2022-08-26T16:43:58.501Z,98.21
2022-08-26T16:46:28.739Z,97.99
2022-08-26T16:49:04.117Z,97.96
2022-08-26T16:51:38.033Z,98.02
2022-08-26T16:54:10.254Z,98.14
2022-08-26T16:56:40.677Z,98.17
2022-08-26T16:59:13.664Z,98.00
2022-08-26T17:01:43.465Z,97.93
2022-08-26T17:04:15.862Z,97.79
2022-08-26T17:06:45.644Z,97.76
2022-08-26T17:09:15.472Z,97.47
2022-08-26T17:11:45.936Z,97.58
2022-08-26T17:14:16.115Z,97.24
2022-08-26T17:16:51.274Z,97.37
2022-08-26T17:19:24.392Z,97.15
2022-08-26T17:21:54.204Z,97.12
2022-08-26T17:24:23.939Z,97.08
2022-08-26T17:26:55.723Z,96.76
2022-08-26T17:29:25.680Z,96.56
2022-08-26T17:31:55.475Z,96.55
2022-08-26T17:34:28.425Z,96.44
2022-08-26T17:36:58.255Z,96.29
2022-08-26T17:39:28.156Z,96.11
2022-08-26T17:41:57.892Z,95.64
2022-08-26T17:44:27.718Z,95.47
2022-08-26T17:46:57.555Z,95.40
2022-08-26T17:49:30.234Z,95.13
2022-08-26T17:52:01.472Z,95.04
2022-08-26T17:54:31.364Z,94.90
2022-08-26T17:57:01.668Z,94.79
2022-08-26T17:59:31.435Z,94.42
2022-08-26T18:02:01.787Z,94.35
2022-08-26T18:04:34.419Z,94.16
2022-08-26T18:07:04.133Z,93.91
2022-08-26T18:09:34.484Z,93.87
2022-08-26T18:12:04.224Z,93.75
2022-08-26T18:14:35.436Z,93.54
2022-08-26T18:17:05.659Z,93.24
2022-08-26T18:19:37.995Z,93.22
2022-08-26T18:22:08.053Z,92.87
2022-08-26T18:24:37.771Z,92.92
2022-08-26T18:27:08.197Z,92.79
2022-08-26T18:29:37.946Z,92.48
2022-08-26T18:32:15.307Z,92.36
2022-08-26T18:34:47.642Z,92.39
2022-08-26T18:37:17.548Z,92.17
2022-08-26T18:39:47.344Z,92.35
2022-08-26T18:42:17.354Z,92.16
2022-08-26T18:44:48.593Z,92.30
2022-08-26T18:47:18.317Z,92.15
2022-08-26T18:49:51.352Z,92.38
2022-08-26T18:52:21.173Z,92.22
2022-08-26T18:54:53.479Z,92.28
2022-08-26T18:57:23.230Z,92.44
2022-08-26T18:59:52.944Z,92.38
2022-08-26T19:02:22.756Z,92.60
2022-08-26T19:04:55.206Z,92.47
2022-08-26T19:07:24.905Z,92.59
2022-08-26T19:09:54.623Z,92.47
2022-08-26T19:12:26.966Z,92.34
2022-08-26T19:14:56.819Z,92.47
2022-08-26T19:17:27.005Z,92.41
2022-08-26T19:19:59.416Z,92.15
2022-08-26T19:22:29.181Z,92.11
2022-08-26T19:24:58.932Z,91.89
2022-08-26T19:27:28.657Z,91.73
2022-08-26T19:29:59.142Z,91.75
2022-08-26T19:32:28.923Z,91.67
2022-08-26T19:35:01.291Z,91.74
2022-08-26T19:37:31.114Z,91.87
2022-08-26T19:40:00.938Z,91.92
2022-08-26T19:42:30.777Z,91.91
2022-08-26T19:45:24.711Z,91.77
2022-08-26T19:47:55.817Z,91.50
2022-08-26T19:50:29.617Z,91.64
2022-08-26T19:53:00.029Z,91.41
2022-08-26T19:55:30.473Z,91.61
2022-08-26T19:58:00.517Z,91.46
2022-08-26T20:00:32.122Z,91.51
2022-08-26T20:03:03.040Z,91.30
2022-08-26T20:05:35.526Z,91.42
2022-08-26T20:08:05.814Z,91.35
2022-08-26T20:10:35.980Z,91.21
2022-08-26T20:13:05.709Z,90.94
2022-08-26T20:15:38.467Z,90.90
2022-08-26T20:18:29.019Z,90.67
2022-08-26T20:21:13.915Z,90.53
2022-08-26T20:23:43.849Z,90.49
2022-08-26T20:26:13.649Z,90.47
2022-08-26T20:28:43.411Z,90.28
2022-08-26T20:31:13.422Z,90.17
2022-08-26T20:33:46.601Z,90.26
2022-08-26T20:36:20.421Z,90.01
2022-08-26T20:38:50.497Z,90.04
2022-08-26T20:41:21.078Z,89.93
2022-08-26T20:43:50.896Z,89.96
2022-08-26T20:46:24.532Z,90.01
2022-08-26T20:48:55.422Z,90.22
2022-08-26T20:51:31.300Z,90.14
2022-08-26T20:54:01.595Z,90.38
2022-08-26T20:56:31.363Z,90.20
2022-08-26T20:59:03.594Z,90.32
2022-08-26T21:01:37.031Z,89.97
2022-08-26T21:04:14.647Z,90.20
2022-08-26T21:06:52.362Z,90.37
2022-08-26T21:09:24.103Z,90.29
2022-08-26T21:11:54.831Z,90.49
2022-08-26T21:14:26.008Z,90.56
2022-08-26T21:16:56.267Z,90.65
2022-08-26T21:19:26.095Z,90.64
2022-08-26T21:21:59.087Z,90.69
2022-08-26T21:24:28.894Z,90.92
2022-08-26T21:26:58.677Z,90.78
2022-08-26T21:29:28.486Z,90.82
2022-08-26T21:31:58.334Z,90.78
2022-08-26T21:34:28.214Z,90.97
2022-08-26T21:37:00.741Z,90.88
2022-08-26T21:39:30.745Z,90.83
2022-08-26T21:42:09.631Z,90.83
2022-08-26T21:44:39.445Z,90.64
2022-08-26T21:47:09.616Z,90.54
2022-08-26T21:49:40.605Z,90.68
2022-08-26T21:52:13.547Z,90.60
2022-08-26T21:54:49.251Z,90.22
2022-08-26T21:57:19.518Z,90.19
2022-08-26T21:59:49.324Z,90.24
2022-08-26T22:02:19.122Z,90.26
2022-08-26T22:04:49.804Z,90.23
2022-08-26T22:07:22.268Z,90.18
2022-08-26T22:09:52.015Z,90.27
2022-08-26T22:12:21.784Z,90.26
2022-08-26T22:14:51.519Z,90.12
2022-08-26T22:17:22.622Z,90.18
2022-08-26T22:19:52.347Z,90.13
2022-08-26T22:22:24.827Z,90.08
2022-08-26T22:24:54.733Z,90.13
2022-08-26T22:27:24.506Z,90.00
2022-08-26T22:29:54.272Z,90.13
2022-08-26T22:32:24.012Z,90.16
2022-08-26T22:34:53.772Z,90.17
2022-08-26T22:37:26.178Z,90.14
2022-08-26T22:39:56.097Z,90.01
2022-08-26T22:42:25.865Z,90.19
2022-08-26T22:44:55.668Z,90.27
2022-08-26T22:47:25.511Z,90.19
2022-08-26T22:49:55.313Z,90.29
2022-08-26T22:52:27.798Z,90.31
2022-08-26T22:54:57.657Z,90.37
2022-08-26T22:57:27.942Z,90.39
2022-08-26T22:59:57.716Z,90.47
2022-08-26T23:02:27.487Z,90.32
2022-08-26T23:04:57.291Z,90.22
2022-08-26T23:07:29.654Z,90.22
2022-08-26T23:09:59.391Z,90.24
2022-08-26T23:12:29.321Z,90.24
2022-08-26T23:14:59.079Z,90.09
2022-08-26T23:17:28.831Z,89.98
2022-08-26T23:19:58.596Z,90.03
2022-08-26T23:22:31.529Z,89.99
2022-08-26T23:25:06.800Z,89.89
2022-08-26T23:27:38.262Z,89.98
2022-08-26T23:30:10.337Z,89.82
2022-08-26T23:32:40.121Z,89.82
2022-08-26T23:35:09.608Z,89.64
2022-08-26T23:37:48.486Z,89.69
2022-08-26T23:40:23.285Z,89.67
2022-08-26T23:42:53.247Z,89.38
2022-08-26T23:45:24.512Z,89.50
2022-08-26T23:47:54.797Z,89.41
2022-08-26T23:50:48.805Z,89.54
2022-08-26T23:53:20.603Z,89.37
2022-08-26T23:55:51.542Z,89.35
2022-08-26T23:58:23.275Z,89.33
